Time;durP1;ratioP1;P1;durP2;ratioP2;P2;SDS_P1;SDS_P2;PMS_P1;PMS_P2;Temp;Humidity;BMP_temperature;BMP_pressure;BME280_temperature;BME280_humidity;BME280_pressure;Samples;Min_cycle;Max_cycle;Signal;HPM_P1;HPM_P2
2022/10/21 00:02:08;;;;;;;8.30;3.30;;;16.90;77.00;;;;;;5132320;28;20027;-77
2022/10/21 00:04:33;;;;;;;8.52;3.17;;;16.80;77.80;;;;;;5134784;28;20019;-77
2022/10/21 00:06:59;;;;;;;13.15;2.60;;;16.60;77.70;;;;;;5135858;28;20554;-77
2022/10/21 00:09:25;;;;;;;5.60;2.63;;;16.60;78.00;;;;;;5132356;28;20023;-77
2022/10/21 00:11:50;;;;;;;13.32;3.70;;;16.60;78.30;;;;;;5132402;28;20035;-77
2022/10/21 00:14:16;;;;;;;7.68;2.85;;;16.60;78.60;;;;;;5134786;27;20038;-77
2022/10/21 00:16:41;;;;;;;10.07;3.20;;;16.50;78.10;;;;;;5135880;27;20042;-77
2022/10/21 00:19:07;;;;;;;13.20;3.05;;;16.50;77.50;;;;;;5135985;27;20030;-77
2022/10/21 00:21:32;;;;;;;11.15;2.70;;;16.70;75.60;;;;;;5136086;27;20031;-77
2022/10/21 00:23:58;;;;;;;9.38;3.45;;;16.90;73.80;;;;;;5136208;27;20024;-77
2022/10/21 00:26:24;;;;;;;19.67;4.32;;;17.00;75.40;;;;;;5136324;27;20415;-77
2022/10/21 00:28:56;;;;;;;13.82;3.33;;;16.90;76.20;;;;;;5135367;27;20055;-77
2022/10/21 00:31:22;;;;;;;13.93;3.63;;;16.80;76.90;;;;;;5135755;27;20015;-77
2022/10/21 00:33:48;;;;;;;14.85;3.42;;;16.70;77.50;;;;;;5135229;27;20395;-77
2022/10/21 00:36:14;;;;;;;14.98;3.80;;;16.70;77.80;;;;;;5135574;27;20391;-77
2022/10/21 00:38:42;;;;;;;13.18;3.72;;;16.70;77.40;;;;;;5136662;27;20064;-77
2022/10/21 00:41:08;;;;;;;15.05;3.40;;;16.70;78.40;;;;;;5135588;27;20057;-77
2022/10/21 00:44:09;;;;;;;13.38;3.15;;;16.70;78.50;;;;;;5135385;27;20015;-78
2022/10/21 00:46:47;;;;;;;14.88;3.60;;;16.70;79.10;;;;;;5102238;27;20039;-77
2022/10/21 00:49:34;;;;;;;15.18;3.53;;;16.70;78.70;;;;;;5135576;27;20099;-78
2022/10/21 00:52:02;;;;;;;12.70;3.13;;;16.70;78.30;;;;;;5135398;27;20031;-78
2022/10/21 00:54:29;;;;;;;8.00;2.40;;;16.70;78.40;;;;;;5135000;27;20497;-78
2022/10/21 00:56:56;;;;;;;13.70;3.05;;;16.80;77.70;;;;;;5135259;27;20065;-78
2022/10/21 00:59:26;;;;;;;12.90;2.75;;;16.80;76.70;;;;;;5135305;27;20026;-78
2022/10/21 01:01:53;;;;;;;20.70;3.70;;;16.80;77.60;;;;;;5135264;27;20023;-78
2022/10/21 01:04:19;;;;;;;13.10;3.83;;;16.90;75.90;;;;;;5134944;27;20027;-78
2022/10/21 01:06:46;;;;;;;11.18;3.03;;;17.00;76.90;;;;;;5134537;27;20020;-78
2022/10/21 01:09:12;;;;;;;14.45;3.03;;;16.90;78.20;;;;;;5134716;27;20467;-78
2022/10/21 01:11:44;;;;;;;12.82;3.00;;;16.80;78.70;;;;;;5135105;27;20030;-78
2022/10/21 01:14:52;;;;;;;11.57;2.58;;;16.70;78.20;;;;;;5134672;27;20131;-78
2022/10/21 01:17:35;;;;;;;10.40;3.13;;;16.60;77.70;;;;;;5136088;27;20502;-78
2022/10/21 01:20:26;;;;;;;9.68;3.22;;;16.70;77.20;;;;;;5134869;27;20035;-78
2022/10/21 01:23:13;;;;;;;11.57;2.97;;;16.90;75.10;;;;;;5134570;27;20025;-78
2022/10/21 01:25:57;;;;;;;15.27;2.85;;;17.00;75.60;;;;;;5133818;27;20395;-77
2022/10/21 01:28:44;;;;;;;11.68;3.08;;;16.90;77.70;;;;;;5134753;27;20110;-78
2022/10/21 01:31:19;;;;;;;17.67;3.90;;;16.60;79.40;;;;;;5134495;27;20027;-77
2022/10/21 01:34:02;;;;;;;11.25;2.58;;;16.50;80.70;;;;;;5134398;27;20031;-78
2022/10/21 01:36:49;;;;;;;15.02;3.40;;;16.40;81.60;;;;;;5135903;27;20145;-78
2022/10/21 01:39:26;;;;;;;14.07;3.53;;;16.40;81.60;;;;;;5135797;27;20035;-77
2022/10/21 01:42:26;;;;;;;20.20;4.10;;;16.30;81.70;;;;;;5134093;27;20382;-78
2022/10/21 01:45:00;;;;;;;11.43;3.25;;;16.30;82.80;;;;;;5134530;27;20489;-78
2022/10/21 01:47:33;;;;;;;18.10;3.78;;;16.30;82.30;;;;;;5134452;27;20019;-78
2022/10/21 01:50:06;;;;;;;14.70;3.03;;;16.30;82.10;;;;;;5134081;27;20035;-79
2022/10/21 01:52:32;;;;;;;13.65;3.10;;;16.20;82.50;;;;;;5134114;27;20468;-77
2022/10/21 01:55:05;;;;;;;11.45;3.40;;;16.20;82.60;;;;;;5133644;27;20033;-77
2022/10/21 01:57:39;;;;;;;12.88;3.25;;;16.10;82.70;;;;;;5134196;27;20030;-78
2022/10/21 02:00:06;;;;;;;11.32;2.60;;;16.10;83.40;;;;;;5133740;27;20027;-79
2022/10/21 02:02:36;;;;;;;15.18;3.65;;;16.10;83.50;;;;;;5133917;27;20030;-78
2022/10/21 02:05:08;;;;;;;11.05;2.95;;;16.10;84.10;;;;;;5133787;27;20026;-78
2022/10/21 02:07:34;;;;;;;7.22;3.05;;;16.10;84.30;;;;;;5133602;27;20023;-79
2022/10/21 02:09:59;;;;;;;11.30;3.28;;;16.10;85.70;;;;;;5133895;27;20482;-78
2022/10/21 02:12:28;;;;;;;6.65;2.65;;;16.10;85.30;;;;;;5133815;27;20770;-78
2022/10/21 02:14:55;;;;;;;9.02;3.13;;;16.00;85.60;;;;;;5133524;27;20064;-78
2022/10/21 02:17:22;;;;;;;15.10;3.97;;;16.00;86.00;;;;;;5133364;27;20085;-78
2022/10/21 02:19:47;;;;;;;11.52;2.97;;;16.00;86.20;;;;;;5133503;27;20023;-78
2022/10/21 02:22:19;;;;;;;9.50;2.92;;;16.00;85.90;;;;;;5133373;27;20030;-79
2022/10/21 02:24:48;;;;;;;12.30;3.20;;;15.90;86.00;;;;;;5133717;27;20046;-78
2022/10/21 02:27:13;;;;;;;14.00;3.00;;;16.00;85.20;;;;;;5133326;27;20042;-78
2022/10/21 02:29:43;;;;;;;10.25;2.85;;;16.00;85.20;;;;;;5132769;27;20491;-78
2022/10/21 02:32:45;;;;;;;14.77;3.30;;;16.00;83.70;;;;;;5133327;27;20030;-78
2022/10/21 02:35:31;;;;;;;15.10;3.20;;;16.00;83.20;;;;;;5132645;27;20060;-78
2022/10/21 02:38:04;;;;;;;;;;;16.00;83.00;;;;;;5132326;27;20027;-78
2022/10/21 02:40:48;;;;;;;14.60;3.67;;;16.00;82.10;;;;;;5133288;27;19903;-78
2022/10/21 02:43:24;;;;;;;14.52;3.83;;;16.10;82.80;;;;;;5133335;27;20095;-78
2022/10/21 02:45:57;;;;;;;19.58;3.63;;;16.20;82.00;;;;;;5134100;27;20023;-78
2022/10/21 02:48:23;;;;;;;15.35;3.38;;;16.10;82.20;;;;;;5133182;27;20020;-77
2022/10/21 02:50:49;;;;;;;13.13;3.50;;;16.10;82.30;;;;;;5133254;27;20023;-77
2022/10/21 02:53:15;;;;;;;10.52;3.20;;;16.10;82.10;;;;;;5132832;27;20038;-77
2022/10/21 02:55:40;;;;;;;14.75;3.70;;;16.20;81.90;;;;;;5132871;27;20023;-79
2022/10/21 02:58:06;;;;;;;14.73;3.47;;;16.20;82.00;;;;;;5132564;27;20061;-77
2022/10/21 03:00:32;;;;;;;14.88;4.07;;;16.10;82.40;;;;;;5133130;27;20434;-77
2022/10/21 03:02:57;;;;;;;16.73;3.58;;;16.10;82.00;;;;;;5132700;27;20031;-77
2022/10/21 03:05:23;;;;;;;11.38;3.38;;;16.10;82.90;;;;;;5132974;27;20067;-79
2022/10/21 03:07:49;;;;;;;13.68;3.90;;;16.10;83.20;;;;;;5132745;27;20364;-76
2022/10/21 03:10:15;;;;;;;12.38;3.75;;;16.00;83.40;;;;;;5132936;27;20495;-78
2022/10/21 03:12:41;;;;;;;15.02;3.70;;;16.00;83.40;;;;;;5132592;27;20438;-78
2022/10/21 03:15:07;;;;;;;15.75;4.22;;;16.10;82.20;;;;;;5132881;27;20067;-78
2022/10/21 03:17:32;;;;;;;16.98;3.53;;;16.20;79.30;;;;;;5132652;28;20043;-78
2022/10/21 03:19:58;;;;;;;15.73;4.13;;;16.30;81.20;;;;;;5132526;28;20050;-78
2022/10/21 03:22:24;;;;;;;13.32;3.60;;;16.20;81.90;;;;;;5132377;28;20428;-78
2022/10/21 03:24:49;;;;;;;13.15;3.63;;;16.10;82.30;;;;;;5132510;28;20023;-77
2022/10/21 03:27:15;;;;;;;10.88;3.80;;;16.00;83.00;;;;;;5132698;28;20091;-77
2022/10/21 03:29:40;;;;;;;12.73;3.50;;;16.10;81.80;;;;;;5132004;28;20031;-77
2022/10/21 03:32:06;;;;;;;14.75;3.65;;;16.10;82.00;;;;;;5132588;28;20083;-77
2022/10/21 03:34:32;;;;;;;16.52;3.88;;;16.20;81.10;;;;;;5132327;28;20051;-78
2022/10/21 03:36:57;;;;;;;12.65;3.05;;;16.10;81.30;;;;;;5132562;28;20467;-76
2022/10/21 03:39:23;;;;;;;12.55;3.60;;;16.10;81.00;;;;;;5132250;28;20110;-77
2022/10/21 03:41:48;;;;;;;15.00;3.50;;;16.20;79.40;;;;;;5132333;28;20023;-78
2022/10/21 03:44:14;;;;;;;17.88;3.70;;;16.30;79.60;;;;;;5132541;28;20110;-78
2022/10/21 03:46:39;;;;;;;13.35;3.45;;;16.40;78.60;;;;;;5132518;28;20459;-77
2022/10/21 03:49:05;;;;;;;16.95;3.42;;;16.50;78.00;;;;;;5134733;27;20023;-77
2022/10/21 03:51:31;;;;;;;11.13;3.05;;;16.50;77.50;;;;;;5136155;27;20110;-77
2022/10/21 03:53:56;;;;;;;16.58;3.28;;;16.50;77.80;;;;;;5136323;27;20059;-78
2022/10/21 03:56:23;;;;;;;13.60;3.42;;;16.60;77.60;;;;;;5136482;27;20034;-78
2022/10/21 03:58:48;;;;;;;14.70;4.43;;;16.60;77.10;;;;;;5136372;27;20022;-77
2022/10/21 04:01:14;;;;;;;18.58;3.47;;;16.70;76.60;;;;;;5136160;27;20019;-76
2022/10/21 04:03:40;;;;;;;18.38;2.97;;;16.70;76.70;;;;;;5136032;27;20379;-77
2022/10/21 04:06:06;;;;;;;17.98;3.90;;;16.70;76.60;;;;;;5135805;27;20551;-77
2022/10/21 04:08:31;;;;;;;14.20;3.50;;;16.70;77.20;;;;;;5136087;27;20034;-77
2022/10/21 04:10:57;;;;;;;12.00;3.47;;;16.70;76.50;;;;;;5136140;27;20072;-77
2022/10/21 04:13:23;;;;;;;19.15;4.05;;;16.70;76.50;;;;;;5135981;27;20035;-76
2022/10/21 04:15:49;;;;;;;17.40;4.45;;;16.70;76.80;;;;;;5135731;27;20019;-77
2022/10/21 04:18:15;;;;;;;16.35;3.40;;;16.60;76.90;;;;;;5135988;27;20386;-78
2022/10/21 04:20:41;;;;;;;13.07;3.80;;;16.60;77.70;;;;;;5135689;27;20305;-78
2022/10/21 04:23:06;;;;;;;16.75;4.03;;;16.60;77.70;;;;;;5135673;27;20027;-77
2022/10/21 04:25:32;;;;;;;16.50;4.18;;;16.60;78.10;;;;;;5135673;27;20054;-77
2022/10/21 04:27:58;;;;;;;14.98;3.25;;;16.50;78.40;;;;;;5135754;27;20042;-77
2022/10/21 04:30:23;;;;;;;16.05;3.92;;;16.50;78.90;;;;;;5135734;27;20070;-78
2022/10/21 04:32:49;;;;;;;13.38;3.10;;;16.50;78.40;;;;;;5135369;27;20084;-77
2022/10/21 04:35:16;;;;;;;13.07;3.35;;;16.40;79.80;;;;;;5136883;27;20126;-77
2022/10/21 04:37:43;;;;;;;11.02;3.45;;;16.40;80.10;;;;;;5135741;27;20114;-77
2022/10/21 04:40:09;;;;;;;13.93;4.47;;;16.30;81.30;;;;;;5135720;27;20023;-78
2022/10/21 04:42:34;;;;;;;15.68;3.63;;;16.20;81.50;;;;;;5136114;27;20149;-78
2022/10/21 04:45:00;;;;;;;17.35;4.18;;;16.10;82.20;;;;;;5135617;27;20053;-78
2022/10/21 04:47:26;;;;;;;10.32;3.97;;;16.00;82.40;;;;;;5135397;27;20034;-78
2022/10/21 04:49:51;;;;;;;17.48;4.03;;;16.00;82.40;;;;;;5135338;27;20089;-78
2022/10/21 04:52:17;;;;;;;13.77;3.63;;;16.00;81.50;;;;;;5135587;27;20023;-78
2022/10/21 04:54:42;;;;;;;15.80;4.10;;;16.00;82.20;;;;;;5136063;27;20075;-78
2022/10/21 04:57:08;;;;;;;17.13;3.88;;;16.00;81.40;;;;;;5136673;27;20459;-77
2022/10/21 04:59:33;;;;;;;10.38;3.33;;;16.00;81.60;;;;;;5137833;27;20023;-77
2022/10/21 05:01:59;;;;;;;10.65;3.72;;;16.00;81.60;;;;;;5140356;27;20049;-78
2022/10/21 05:04:25;;;;;;;16.33;3.22;;;16.00;82.70;;;;;;5138316;27;20090;-79
2022/10/21 05:06:50;;;;;;;12.02;3.55;;;15.90;82.80;;;;;;5137359;27;20027;-79
2022/10/21 05:09:16;;;;;;;18.23;4.25;;;15.90;83.40;;;;;;5134414;27;20498;-79
2022/10/21 05:11:41;;;;;;;14.35;4.00;;;15.90;84.20;;;;;;5134932;27;20020;-79
2022/10/21 05:14:07;;;;;;;12.07;3.97;;;15.90;84.30;;;;;;5134804;27;20150;-78
2022/10/21 05:16:33;;;;;;;11.07;3.80;;;15.90;85.00;;;;;;5134824;27;20427;-78
2022/10/21 05:18:58;;;;;;;12.27;4.20;;;15.90;85.30;;;;;;5134890;27;20035;-79
2022/10/21 05:21:24;;;;;;;9.55;3.65;;;15.90;85.70;;;;;;5137795;27;20034;-79
2022/10/21 05:23:49;;;;;;;13.48;4.32;;;15.80;85.90;;;;;;5134629;27;20048;-79
2022/10/21 05:26:16;;;;;;;8.05;4.25;;;15.80;86.20;;;;;;5134764;27;20155;-78
2022/10/21 05:28:42;;;;;;;14.48;4.50;;;15.70;86.50;;;;;;5135130;27;20126;-78
2022/10/21 05:31:07;;;;;;;12.18;3.92;;;15.70;86.70;;;;;;5134372;27;20023;-78
2022/10/21 05:33:34;;;;;;;15.18;4.10;;;15.70;86.70;;;;;;5133968;27;20475;-78
2022/10/21 05:36:06;;;;;;;20.92;4.32;;;15.60;86.90;;;;;;5133653;27;20043;-78
2022/10/21 05:38:32;;;;;;;15.10;4.47;;;15.60;87.30;;;;;;5134108;27;20027;-79
2022/10/21 05:40:58;;;;;;;17.13;4.10;;;15.50;87.60;;;;;;5134514;27;20031;-78
2022/10/21 05:43:24;;;;;;;11.20;3.72;;;15.60;88.00;;;;;;5134183;27;20019;-78
2022/10/21 05:45:50;;;;;;;13.05;3.85;;;15.50;88.20;;;;;;5133935;27;20023;-79
2022/10/21 05:48:17;;;;;;;11.68;4.05;;;15.50;88.40;;;;;;5133936;27;20380;-79
2022/10/21 05:50:44;;;;;;;13.43;4.15;;;15.40;88.30;;;;;;5134079;27;20072;-79
2022/10/21 05:53:10;;;;;;;12.45;4.28;;;15.40;88.30;;;;;;5133974;27;20023;-78
2022/10/21 05:55:36;;;;;;;12.40;4.03;;;15.40;88.70;;;;;;5130793;27;20110;-78
2022/10/21 05:58:01;;;;;;;13.50;4.70;;;15.40;89.00;;;;;;5116774;27;20047;-78
2022/10/21 06:00:27;;;;;;;13.13;4.75;;;15.30;89.40;;;;;;5116455;27;20468;-78
2022/10/21 06:02:52;;;;;;;16.30;3.90;;;15.10;89.70;;;;;;5116430;27;20483;-78
2022/10/21 06:05:19;;;;;;;17.30;4.97;;;15.20;90.10;;;;;;5116675;27;20061;-78
2022/10/21 06:07:45;;;;;;;14.70;4.28;;;15.10;90.10;;;;;;5116578;27;20038;-78
2022/10/21 06:10:11;;;;;;;19.17;5.25;;;15.10;90.20;;;;;;5116452;27;20464;-78
2022/10/21 06:12:36;;;;;;;10.63;4.28;;;15.10;90.30;;;;;;5116105;27;20023;-78
2022/10/21 06:15:03;;;;;;;9.18;3.95;;;15.10;90.40;;;;;;5116099;27;20402;-78
2022/10/21 06:17:28;;;;;;;12.25;4.78;;;15.10;90.40;;;;;;5115992;27;20021;-78
2022/10/21 06:19:54;;;;;;;12.52;4.68;;;15.20;90.50;;;;;;5116435;27;20101;-78
2022/10/21 06:22:19;;;;;;;15.95;4.97;;;15.20;90.60;;;;;;5116112;27;20098;-78
2022/10/21 06:24:46;;;;;;;13.65;5.22;;;15.30;90.60;;;;;;5115703;27;20055;-78
2022/10/21 06:27:12;;;;;;;18.58;5.68;;;15.30;90.50;;;;;;5116082;27;20027;-78
2022/10/21 06:29:38;;;;;;;13.85;4.97;;;15.20;90.60;;;;;;5115677;27;20037;-78
2022/10/21 06:32:04;;;;;;;11.63;4.03;;;15.20;90.70;;;;;;5133057;27;20114;-78
2022/10/21 06:34:29;;;;;;;13.52;4.68;;;15.20;90.60;;;;;;5132453;27;20083;-78
2022/10/21 06:36:55;;;;;;;12.48;3.92;;;15.20;90.40;;;;;;5116270;27;20023;-78
2022/10/21 06:39:21;;;;;;;13.05;4.43;;;15.20;90.90;;;;;;5132739;27;20024;-78
2022/10/21 06:41:46;;;;;;;17.35;5.43;;;15.20;91.60;;;;;;5132882;27;20031;-78
2022/10/21 06:44:12;;;;;;;21.60;9.63;;;15.20;90.80;;;;;;5132863;27;20494;-78
2022/10/21 06:46:37;;;;;;;19.00;4.90;;;15.30;90.90;;;;;;5132748;27;20019;-78
2022/10/21 06:49:03;;;;;;;18.02;5.15;;;15.20;90.90;;;;;;5132698;27;20047;-77
2022/10/21 06:51:28;;;;;;;19.00;5.38;;;15.10;91.00;;;;;;5132667;27;20022;-77
2022/10/21 06:53:57;;;;;;;15.05;5.00;;;15.10;90.90;;;;;;5132404;27;20027;-78
2022/10/21 06:56:23;;;;;;;15.63;4.70;;;15.10;91.20;;;;;;5115464;27;20424;-78
2022/10/21 06:58:50;;;;;;;13.38;4.65;;;15.10;91.40;;;;;;5115148;27;20527;-77
2022/10/21 07:01:21;;;;;;;10.93;4.40;;;15.10;91.50;;;;;;5115389;27;20490;-77
2022/10/21 07:03:47;;;;;;;14.70;4.18;;;15.10;92.40;;;;;;5134229;27;20019;-77
2022/10/21 07:06:13;;;;;;;15.95;5.03;;;15.10;91.60;;;;;;5115230;28;20455;-78
2022/10/21 07:08:39;;;;;;;12.50;4.68;;;15.20;91.80;;;;;;5132626;27;20027;-78
2022/10/21 07:11:06;;;;;;;15.60;5.30;;;15.20;91.60;;;;;;5132494;27;20023;-79
2022/10/21 07:13:34;;;;;;;19.10;5.30;;;15.10;91.60;;;;;;5133433;27;20035;-78
2022/10/21 07:16:01;;;;;;;16.75;5.88;;;15.10;91.60;;;;;;5115216;28;20023;-78
2022/10/21 07:18:28;;;;;;;17.48;5.18;;;15.10;91.70;;;;;;5115367;28;20551;-78
2022/10/21 07:20:54;;;;;;;13.80;5.18;;;15.10;91.80;;;;;;5098510;28;20480;-78
2022/10/21 07:23:20;;;;;;;19.92;6.40;;;15.10;91.50;;;;;;5133328;27;20058;-78
2022/10/21 07:25:45;;;;;;;17.25;5.00;;;15.10;92.00;;;;;;5136209;27;20068;-79
2022/10/21 07:28:11;;;;;;;17.85;4.95;;;15.10;91.90;;;;;;5136186;27;20031;-79
2022/10/21 07:30:41;;;;;;;19.13;5.40;;;15.00;91.80;;;;;;5136539;27;20458;-79
2022/10/21 07:33:07;;;;;;;13.95;5.00;;;15.00;92.00;;;;;;5119065;27;20116;-79
2022/10/21 07:35:33;;;;;;;14.10;4.50;;;15.00;92.10;;;;;;5118831;27;20368;-79
2022/10/21 07:37:58;;;;;;;19.92;4.97;;;14.90;92.10;;;;;;5135715;27;20087;-78
2022/10/21 07:40:25;;;;;;;18.67;4.82;;;14.80;92.10;;;;;;5137431;27;20062;-79
2022/10/21 07:42:50;;;;;;;16.55;4.30;;;14.80;92.20;;;;;;5136151;27;20020;-78
2022/10/21 07:45:16;;;;;;;17.42;4.30;;;14.80;91.90;;;;;;5136488;27;20075;-79
2022/10/21 07:47:41;;;;;;;11.93;3.10;;;14.90;91.40;;;;;;5136356;27;20157;-79
2022/10/21 07:50:08;;;;;;;9.75;3.33;;;14.90;90.00;;;;;;5135978;27;20016;-79
2022/10/21 07:52:33;;;;;;;9.45;2.22;;;14.90;89.20;;;;;;5136057;27;20534;-78
2022/10/21 07:55:00;;;;;;;8.70;2.22;;;15.00;88.60;;;;;;5135866;27;20126;-77
2022/10/21 07:57:27;;;;;;;5.35;2.15;;;15.10;88.70;;;;;;5136071;27;20034;-77
2022/10/21 07:59:53;;;;;;;10.52;2.28;;;15.20;87.60;;;;;;5136404;27;20030;-79
2022/10/21 08:02:18;;;;;;;8.95;2.03;;;15.20;87.30;;;;;;5136054;27;20023;-80
2022/10/21 08:04:44;;;;;;;9.20;2.75;;;15.20;87.00;;;;;;5136027;27;20031;-78
2022/10/21 08:07:09;;;;;;;10.50;2.45;;;15.30;87.00;;;;;;5135968;27;20019;-78
2022/10/21 08:09:35;;;;;;;7.28;2.60;;;15.40;87.20;;;;;;5135853;27;20030;-77
2022/10/21 08:12:00;;;;;;;10.43;2.65;;;15.30;87.20;;;;;;5136037;27;20023;-77
2022/10/21 08:14:26;;;;;;;14.57;2.67;;;15.40;87.10;;;;;;5135329;27;20035;-76
2022/10/21 08:16:53;;;;;;;15.27;2.85;;;15.40;87.60;;;;;;5118861;27;20072;-77
2022/10/21 08:19:22;;;;;;;11.68;3.13;;;15.40;87.40;;;;;;5118515;27;20023;-77
2022/10/21 08:21:48;;;;;;;11.85;3.10;;;15.40;87.30;;;;;;5118569;27;20015;-77
2022/10/21 08:24:17;;;;;;;15.20;3.20;;;15.40;87.50;;;;;;5135825;27;20046;-84
2022/10/21 08:26:43;;;;;;;8.93;2.17;;;15.40;87.10;;;;;;5118370;27;20026;-81
2022/10/21 08:29:09;;;;;;;8.55;2.42;;;15.50;86.70;;;;;;5118401;27;20023;-80
2022/10/21 08:31:38;;;;;;;9.77;2.42;;;15.60;85.50;;;;;;5118002;27;20046;-80
2022/10/21 08:34:05;;;;;;;8.50;2.42;;;15.60;84.70;;;;;;5136401;27;20122;-81
2022/10/21 08:36:31;;;;;;;6.93;1.95;;;15.60;84.70;;;;;;5100971;27;20147;-76
2022/10/21 08:38:57;;;;;;;6.55;2.22;;;15.70;84.50;;;;;;5134940;27;20390;-74
2022/10/21 08:41:29;;;;;;;5.35;2.60;;;15.70;85.10;;;;;;5118185;27;20062;-75
2022/10/21 08:44:20;;;;;;;7.43;2.63;;;15.70;85.40;;;;;;5118327;27;20016;-75
2022/10/21 08:47:20;;;;;;;10.98;2.35;;;15.70;85.40;;;;;;5118039;27;20113;-74
2022/10/21 08:49:45;;;;;;;11.63;2.47;;;15.80;85.40;;;;;;5104357;27;20031;-74
2022/10/21 08:52:26;;;;;;;6.90;2.40;;;15.80;85.20;;;;;;5117871;27;20023;-75
2022/10/21 08:55:01;;;;;;;9.85;2.22;;;15.90;83.70;;;;;;5117607;27;20126;-74
2022/10/21 08:57:29;;;;;;;5.40;2.33;;;15.90;83.70;;;;;;5135678;27;20478;-74
2022/10/21 08:59:56;;;;;;;7.57;2.70;;;15.90;84.60;;;;;;5135703;27;20532;-76
2022/10/21 09:02:24;;;;;;;5.93;2.35;;;15.80;86.20;;;;;;5134588;27;20379;-76
2022/10/21 09:04:53;;;;;;;7.40;2.60;;;15.80;83.40;;;;;;5117417;27;20023;-75
2022/10/21 09:07:44;;;;;;;6.63;2.60;;;15.90;84.20;;;;;;5117417;27;20016;-75
2022/10/21 09:10:23;;;;;;;7.05;2.42;;;15.90;84.90;;;;;;5117272;27;20023;-76
2022/10/21 09:13:11;;;;;;;8.35;2.78;;;15.80;84.40;;;;;;5117469;27;20027;-76
2022/10/21 09:15:51;;;;;;;6.35;2.58;;;15.80;86.10;;;;;;5117169;27;20039;-75
2022/10/21 09:18:49;;;;;;;7.65;2.42;;;15.70;84.90;;;;;;5135529;27;20030;-75
2022/10/21 09:21:28;;;;;;;7.18;2.20;;;15.60;86.50;;;;;;5117404;27;20088;-75
2022/10/21 09:24:04;;;;;;;5.57;1.60;;;15.60;84.30;;;;;;5135680;27;20482;-75
2022/10/21 09:26:40;;;;;;;3.50;1.10;;;15.70;82.90;;;;;;5117292;27;20019;-76
2022/10/21 09:29:27;;;;;;;5.10;1.27;;;15.70;80.70;;;;;;5117168;27;20019;-75
2022/10/21 09:32:00;;;;;;;4.38;1.00;;;15.70;82.00;;;;;;5116955;27;20019;-75
2022/10/21 09:34:34;;;;;;;1.98;1.05;;;15.70;81.60;;;;;;5113454;28;20119;-76
2022/10/21 09:37:04;;;;;;;2.47;1.08;;;15.70;81.30;;;;;;5114036;28;20027;-76
2022/10/21 09:39:38;;;;;;;2.25;0.93;;;15.70;80.20;;;;;;5114112;27;20032;-76
2022/10/21 09:42:05;;;;;;;2.83;0.60;;;15.80;80.10;;;;;;5113516;28;20084;-76
2022/10/21 09:44:30;;;;;;;2.03;0.80;;;15.80;78.90;;;;;;5130546;27;20031;-76
2022/10/21 09:46:56;;;;;;;3.50;0.63;;;15.80;78.80;;;;;;5129614;27;20452;-76
2022/10/21 09:49:31;;;;;;;1.95;0.80;;;15.80;77.70;;;;;;5130134;27;20167;-77
2022/10/21 09:52:03;;;;;;;0.80;0.60;;;15.90;79.20;;;;;;5113079;28;20019;-76
2022/10/21 09:54:34;;;;;;;2.65;0.55;;;15.90;79.40;;;;;;5114490;28;20169;-76
2022/10/21 09:57:10;;;;;;;3.53;1.10;;;15.90;78.50;;;;;;5114458;28;20058;-75
2022/10/21 09:59:49;;;;;;;3.13;0.75;;;15.90;78.80;;;;;;5114394;28;20024;-75
2022/10/21 10:02:17;;;;;;;0.85;0.50;;;16.00;79.60;;;;;;5112919;28;20019;-75
2022/10/21 10:04:43;;;;;;;1.85;0.80;;;16.00;78.50;;;;;;5129865;27;20027;-75
2022/10/21 10:07:34;;;;;;;3.58;0.80;;;16.10;78.10;;;;;;5129702;27;20216;-76
2022/10/21 10:10:01;;;;;;;2.78;0.80;;;16.10;78.10;;;;;;5112832;28;20027;-74
2022/10/21 10:12:27;;;;;;;2.33;0.85;;;16.10;78.50;;;;;;5162390;22;20090;-76
2022/10/21 10:14:54;;;;;;;1.38;0.52;;;16.10;78.50;;;;;;5071486;28;20036;-75
2022/10/21 10:17:23;;;;;;;0.52;0.50;;;16.10;78.00;;;;;;5071699;28;20395;-76
2022/10/21 10:20:14;;;;;;;1.52;0.60;;;16.10;78.00;;;;;;5071834;28;20406;-76
2022/10/21 10:23:07;;;;;;;1.95;0.85;;;16.10;78.40;;;;;;5061629;28;20043;-75
2022/10/21 10:25:38;;;;;;;2.70;0.85;;;16.10;78.20;;;;;;5066063;28;20082;-75
2022/10/21 10:28:17;;;;;;;4.18;0.75;;;16.10;77.80;;;;;;5071852;28;20028;-74
2022/10/21 10:30:42;;;;;;;2.35;0.80;;;16.10;78.50;;;;;;5054367;28;20024;-75
2022/10/21 10:33:14;;;;;;;1.92;0.70;;;16.10;79.30;;;;;;5071232;28;20020;-75
2022/10/21 10:35:47;;;;;;;2.17;1.00;;;16.10;79.10;;;;;;5054162;28;20433;-74
2022/10/21 10:38:30;;;;;;;0.98;0.57;;;16.10;79.70;;;;;;5071624;28;20135;-75
2022/10/21 10:41:16;;;;;;;4.05;0.88;;;16.00;79.90;;;;;;5076581;28;20028;-75
2022/10/21 10:43:52;;;;;;;;;;;16.00;81.40;;;;;;5055165;28;20096;-75
2022/10/21 10:46:32;;;;;;;4.82;1.58;;;15.90;82.00;;;;;;5071094;28;19908;-74
2022/10/21 10:49:21;;;;;;;4.28;1.17;;;15.90;81.70;;;;;;5070603;28;20033;-77
2022/10/21 10:52:05;;;;;;;2.75;1.02;;;15.90;82.60;;;;;;5054435;28;20027;-78
2022/10/21 10:54:31;;;;;;;4.40;1.05;;;15.80;82.20;;;;;;5070834;28;20477;-77
2022/10/21 10:57:05;;;;;;;1.38;0.77;;;15.80;81.70;;;;;;5070474;28;20031;-77
2022/10/21 10:59:42;;;;;;;4.30;0.90;;;15.90;81.50;;;;;;5070895;28;20422;-75
2022/10/21 11:02:11;;;;;;;1.13;0.90;;;16.00;80.60;;;;;;5070815;28;20035;-78
2022/10/21 11:04:38;;;;;;;2.97;0.57;;;16.00;80.40;;;;;;5071089;28;20052;-77
2022/10/21 11:07:20;;;;;;;4.00;1.17;;;16.00;81.10;;;;;;5070974;28;20016;-76
2022/10/21 11:09:51;;;;;;;2.78;1.00;;;16.10;80.90;;;;;;5071365;28;20074;-77
2022/10/21 11:12:22;;;;;;;4.43;0.85;;;16.10;80.70;;;;;;5062697;28;20068;-79
2022/10/21 11:14:52;;;;;;;5.70;1.45;;;16.10;81.00;;;;;;5071299;28;20481;-78
2022/10/21 11:17:20;;;;;;;2.55;0.85;;;16.20;80.70;;;;;;5071641;28;20675;-78
2022/10/21 11:20:11;;;;;;;3.83;0.80;;;16.20;80.50;;;;;;5071627;28;20473;-79
2022/10/21 11:22:54;;;;;;;2.03;0.55;;;16.10;80.00;;;;;;5071484;28;20055;-79
2022/10/21 11:25:42;;;;;;;2.45;0.90;;;16.10;79.80;;;;;;5071623;28;20020;-79
2022/10/21 11:28:29;;;;;;;1.75;0.55;;;16.10;78.70;;;;;;5058075;28;20480;-78
2022/10/21 11:31:22;;;;;;;4.03;0.73;;;16.10;78.70;;;;;;5071508;28;20021;-77
2022/10/21 11:34:24;;;;;;;1.88;0.70;;;15.90;78.50;;;;;;5071064;28;20047;-77
2022/10/21 11:37:18;;;;;;;4.40;1.00;;;15.90;78.50;;;;;;5027128;28;20123;-76
2022/10/21 11:40:07;;;;;;;2.53;0.55;;;15.90;79.70;;;;;;5070925;28;20070;-77
2022/10/21 11:42:46;;;;;;;1.13;0.63;;;15.80;78.80;;;;;;5088011;28;20024;-78
2022/10/21 11:45:38;;;;;;;1.85;0.57;;;15.80;78.70;;;;;;5071597;28;20029;-78
2022/10/21 11:48:04;;;;;;;2.72;0.90;;;15.90;78.20;;;;;;5087917;28;20408;-77
2022/10/21 11:50:50;;;;;;;1.58;0.77;;;15.90;80.10;;;;;;5088062;28;20025;-76
2022/10/21 11:53:35;;;;;;;;;;;15.90;79.10;;;;;;5031084;28;20094;-76
2022/10/21 11:56:21;;;;;;;1.00;0.40;;;15.90;78.90;;;;;;5071291;28;19909;-77
2022/10/21 11:59:04;;;;;;;0.77;0.30;;;15.80;80.10;;;;;;5088195;28;20025;-77
2022/10/21 12:01:59;;;;;;;1.73;0.40;;;15.90;79.00;;;;;;5070482;28;20032;-76
2022/10/21 12:04:50;;;;;;;3.05;0.50;;;16.10;76.00;;;;;;5070746;28;20059;-77
2022/10/21 12:07:29;;;;;;;3.95;0.73;;;16.30;74.80;;;;;;5070853;28;20477;-76
2022/10/21 12:10:00;;;;;;;2.92;0.68;;;16.50;75.40;;;;;;5089921;28;20687;-79
2022/10/21 12:12:35;;;;;;;3.65;0.50;;;16.70;76.30;;;;;;5074529;28;20510;-78
2022/10/21 12:15:13;;;;;;;2.33;0.40;;;16.90;75.10;;;;;;5058518;28;20044;-78
2022/10/21 12:17:40;;;;;;;2.80;0.68;;;17.10;75.80;;;;;;5074111;28;20028;-79
2022/10/21 12:20:16;;;;;;;3.78;0.45;;;17.10;75.40;;;;;;5091641;28;20036;-77
2022/10/21 12:22:43;;;;;;;1.58;0.47;;;17.10;74.90;;;;;;5074550;28;20049;-79
2022/10/21 12:25:14;;;;;;;2.00;0.52;;;17.10;74.90;;;;;;5074059;28;20032;-77
2022/10/21 12:27:55;;;;;;;4.00;0.68;;;17.10;75.50;;;;;;5091595;28;20032;-78
2022/10/21 12:30:36;;;;;;;3.55;0.45;;;17.10;74.20;;;;;;5074649;28;20119;-76
2022/10/21 12:33:41;;;;;;;2.05;0.35;;;17.20;74.60;;;;;;5075371;28;20534;-78
2022/10/21 12:36:15;;;;;;;0.70;0.38;;;17.20;74.60;;;;;;5062834;28;20044;-78
2022/10/21 12:38:52;;;;;;;1.20;0.60;;;17.20;75.10;;;;;;5075491;28;20029;-77
2022/10/21 12:41:23;;;;;;;1.00;0.50;;;17.20;75.40;;;;;;5073946;28;20026;-75
2022/10/21 12:44:05;;;;;;;1.70;0.55;;;17.10;70.90;;;;;;5090657;28;20025;-79
2022/10/21 12:46:48;;;;;;;1.70;0.30;;;17.10;69.80;;;;;;5073717;28;20028;-73
2022/10/21 12:49:31;;;;;;;1.88;0.50;;;17.10;69.50;;;;;;5075052;28;20020;-74
2022/10/21 12:52:22;;;;;;;0.32;0.20;;;17.10;69.70;;;;;;5074028;28;20094;-79
2022/10/21 12:54:58;;;;;;;0.50;0.30;;;17.20;69.30;;;;;;5073852;28;20072;-79
2022/10/21 12:57:45;;;;;;;1.85;0.63;;;17.20;70.10;;;;;;5073476;28;20021;-84
2022/10/21 13:00:26;;;;;;;2.80;0.50;;;17.10;70.50;;;;;;5073738;28;20090;-77
2022/10/21 13:03:09;;;;;;;3.35;0.50;;;17.20;70.70;;;;;;5089629;28;20025;-78